createdAt,value
2022-08-24T00:03:48.023Z,25.02
2022-08-24T00:08:40.387Z,25.04
2022-08-24T00:13:33.546Z,25.04
2022-08-24T00:18:25.752Z,24.99
2022-08-24T00:23:18.135Z,24.99
2022-08-24T00:28:10.834Z,24.98
2022-08-24T00:33:03.545Z,24.93
2022-08-24T00:37:56.138Z,24.89
2022-08-24T00:42:48.840Z,24.87
2022-08-24T00:47:41.490Z,24.86
2022-08-24T00:52:34.279Z,24.87
2022-08-24T00:57:27.020Z,24.86
2022-08-24T01:02:19.769Z,24.86
2022-08-24T01:07:12.320Z,24.84
2022-08-24T01:12:05.207Z,24.84
2022-08-24T01:16:57.739Z,24.78
2022-08-24T01:21:50.774Z,24.8
2022-08-24T01:26:43.455Z,24.8
2022-08-24T01:31:36.068Z,24.78
2022-08-24T01:36:28.857Z,24.75
2022-08-24T01:41:23.090Z,24.75
2022-08-24T01:46:14.218Z,24.76
2022-08-24T01:51:07.000Z,24.75
2022-08-24T01:55:59.689Z,24.7
2022-08-24T02:00:52.319Z,24.67
2022-08-24T02:05:45.062Z,24.68
2022-08-24T02:10:37.610Z,24.66
2022-08-24T02:15:30.166Z,24.62
2022-08-24T02:20:22.956Z,24.6
2022-08-24T02:25:15.746Z,24.59
2022-08-24T02:35:00.943Z,24.57
2022-08-24T02:39:53.587Z,24.54
2022-08-24T02:44:46.140Z,24.57
2022-08-24T02:49:38.930Z,24.54
2022-08-24T02:54:31.769Z,24.55
2022-08-24T02:59:24.349Z,24.53
2022-08-24T03:04:16.967Z,24.5
2022-08-24T03:09:09.680Z,24.48
2022-08-24T03:14:02.282Z,24.43
2022-08-24T03:18:55.046Z,24.42
2022-08-24T03:23:47.602Z,24.45
2022-08-24T03:28:40.186Z,24.42
2022-08-24T03:33:32.877Z,24.41
2022-08-24T03:38:25.518Z,24.37
2022-08-24T03:43:18.265Z,24.38
2022-08-24T03:48:11.114Z,24.38
2022-08-24T03:53:03.783Z,24.36
2022-08-24T03:57:56.281Z,24.31
2022-08-24T04:02:50.307Z,24.34
2022-08-24T04:07:42.649Z,24.29
2022-08-24T04:12:35.329Z,24.29
2022-08-24T04:17:27.953Z,24.29
2022-08-24T04:22:20.623Z,24.24
2022-08-24T04:27:13.219Z,24.23
2022-08-24T04:32:06.054Z,24.23
2022-08-24T04:36:58.633Z,24.21
2022-08-24T04:41:51.126Z,24.2
2022-08-24T04:46:43.910Z,24.18
2022-08-24T04:51:36.438Z,23.86
2022-08-24T04:56:28.042Z,23.25
2022-08-24T05:01:20.107Z,23.04
2022-08-24T05:06:12.613Z,22.95
2022-08-24T05:11:04.987Z,22.78
2022-08-24T05:15:57.688Z,22.52
2022-08-24T05:20:50.223Z,22.47
2022-08-24T05:25:43.020Z,22.41
2022-08-24T05:30:36.498Z,20.69
2022-08-24T05:35:26.979Z,20.46
2022-08-24T05:40:20.089Z,20.72
2022-08-24T05:45:13.093Z,21.74
2022-08-24T05:50:05.226Z,21.65
2022-08-24T05:54:58.010Z,21.35
2022-08-24T05:59:49.877Z,21.29
2022-08-24T06:04:43.120Z,21.79
2022-08-24T06:09:35.822Z,21.58
2022-08-24T06:14:27.917Z,21.46
2022-08-24T06:19:20.653Z,21.38
2022-08-24T06:24:06.946Z,21.75
2022-08-24T06:29:01.267Z,22.1
2022-08-24T06:33:55.236Z,22.24
2022-08-24T06:38:47.974Z,22.32
2022-08-24T06:43:40.541Z,22.4
2022-08-24T06:48:33.086Z,22.47
2022-08-24T06:53:25.613Z,22.53
2022-08-24T06:58:18.419Z,22.58
2022-08-24T07:03:11.147Z,22.63
2022-08-24T07:08:03.539Z,22.69
2022-08-24T07:12:56.154Z,22.71
2022-08-24T07:17:48.670Z,22.77
2022-08-24T07:22:41.287Z,22.82
2022-08-24T07:27:33.909Z,22.84
2022-08-24T07:32:26.528Z,22.86
2022-08-24T07:37:19.299Z,22.9
2022-08-24T07:42:14.929Z,22.89
2022-08-24T07:47:21.010Z,22.92
2022-08-24T07:51:57.531Z,22.95
2022-08-24T07:56:50.400Z,22.97
2022-08-24T08:01:43.175Z,23
2022-08-24T08:06:35.856Z,23.03
2022-08-24T08:11:28.527Z,23.06
2022-08-24T08:16:21.368Z,23.11
2022-08-24T08:21:14.237Z,23.15
2022-08-24T08:26:06.499Z,23.18
2022-08-24T08:30:59.081Z,23.23
2022-08-24T08:35:51.671Z,23.27
2022-08-24T08:40:44.238Z,23.35
2022-08-24T08:50:29.884Z,23.47
2022-08-24T08:55:22.922Z,23.54
2022-08-24T09:00:15.455Z,23.6
2022-08-24T09:05:08.199Z,23.67
2022-08-24T09:10:01.119Z,23.72
2022-08-24T09:14:53.578Z,23.77
2022-08-24T09:19:45.951Z,23.82
2022-08-24T09:24:38.514Z,23.89
2022-08-24T09:29:31.184Z,23.94
2022-08-24T09:34:23.711Z,24
2022-08-24T09:39:16.529Z,24.07
2022-08-24T09:44:09.128Z,24.11
2022-08-24T09:49:01.443Z,24.19
2022-08-24T09:53:54.228Z,24.24
2022-08-24T09:58:47.194Z,24.38
2022-08-24T10:03:39.737Z,24.46
2022-08-24T10:08:32.156Z,24.47
2022-08-24T10:13:24.829Z,24.51
2022-08-24T10:18:17.169Z,24.58
2022-08-24T10:23:09.726Z,24.67
2022-08-24T10:28:02.684Z,24.71
2022-08-24T10:32:55.240Z,24.75
2022-08-24T10:37:47.858Z,24.78
2022-08-24T10:42:40.408Z,24.82
2022-08-24T10:47:33.310Z,24.89
2022-08-24T10:52:25.937Z,24.93
2022-08-24T10:57:18.699Z,24.96
2022-08-24T11:02:12.592Z,25
2022-08-24T11:07:04.189Z,25.02
2022-08-24T11:11:56.629Z,25.03
2022-08-24T11:16:49.467Z,25.06
2022-08-24T11:21:42.308Z,25.07
2022-08-24T11:26:34.824Z,25.07
2022-08-24T11:31:27.616Z,25.11
2022-08-24T11:36:20.991Z,25.11
2022-08-24T11:41:12.760Z,25.12
2022-08-24T11:46:05.451Z,25.14
2022-08-24T11:50:57.982Z,25.17
2022-08-24T11:55:51.431Z,25.17
2022-08-24T12:00:43.535Z,25.18
2022-08-24T12:05:36.354Z,25.22
2022-08-24T12:10:32.621Z,25.22
2022-08-24T12:15:22.078Z,25.28
2022-08-24T12:20:15.046Z,25.34
2022-08-24T12:25:07.920Z,25.35
2022-08-24T12:30:00.672Z,25.4
2022-08-24T12:34:56.887Z,25.45
2022-08-24T12:39:46.429Z,25.48
2022-08-24T12:44:38.982Z,25.53
2022-08-24T12:49:31.617Z,25.57
2022-08-24T12:54:24.279Z,25.63
2022-08-24T12:59:16.991Z,25.67
2022-08-24T13:04:09.795Z,25.72
2022-08-24T13:09:02.488Z,25.8
2022-08-24T13:13:55.309Z,25.88
2022-08-24T13:18:48.020Z,25.94
2022-08-24T13:23:40.957Z,26.04
2022-08-24T13:28:33.850Z,26.11
2022-08-24T13:33:26.589Z,26.12
2022-08-24T13:38:19.279Z,26.09
2022-08-24T13:43:11.978Z,26.11
2022-08-24T13:48:04.697Z,26.12
2022-08-24T13:52:57.283Z,26.16
2022-08-24T13:57:49.745Z,26.17
2022-08-24T14:02:42.372Z,26.18
2022-08-24T14:07:35.155Z,26.21
2022-08-24T14:12:28.153Z,26.24
2022-08-24T14:17:21.037Z,26.27
2022-08-24T14:22:13.742Z,26.29
2022-08-24T14:27:06.883Z,26.33
2022-08-24T14:32:08.562Z,26.34
2022-08-24T14:36:53.786Z,26.35
2022-08-24T14:41:45.253Z,26.39
2022-08-24T14:46:37.976Z,26.42
2022-08-24T14:51:30.763Z,26.44
2022-08-24T14:56:24.967Z,26.47
2022-08-24T15:01:16.149Z,26.48
2022-08-24T15:06:26.082Z,26.52
2022-08-24T15:11:01.281Z,26.55
2022-08-24T15:15:54.320Z,26.58
2022-08-24T15:20:47.012Z,26.6
2022-08-24T15:25:39.690Z,26.65
2022-08-24T15:30:32.591Z,26.68
2022-08-24T15:35:25.386Z,26.69
2022-08-24T15:40:18.250Z,26.72
2022-08-24T15:45:10.932Z,26.75
2022-08-24T15:50:03.844Z,26.78
2022-08-24T15:54:56.522Z,26.8
2022-08-24T15:59:49.202Z,26.82
2022-08-24T16:04:41.882Z,26.84
2022-08-24T16:14:27.452Z,26.85
2022-08-24T16:19:20.136Z,26.88
2022-08-24T16:24:13.030Z,26.89
2022-08-24T16:29:05.786Z,26.91
2022-08-24T16:33:58.568Z,26.92
2022-08-24T16:38:51.383Z,26.92
2022-08-24T16:43:43.966Z,26.94
2022-08-24T16:48:36.643Z,26.94
2022-08-24T16:53:29.501Z,26.96
2022-08-24T16:58:22.399Z,26.97
2022-08-24T17:03:15.409Z,26.96
2022-08-24T17:08:08.007Z,26.95
2022-08-24T17:13:00.717Z,26.94
2022-08-24T17:17:53.305Z,26.95
2022-08-24T17:22:46.282Z,26.96
2022-08-24T17:27:39.038Z,26.94
2022-08-24T17:32:31.714Z,26.97
2022-08-24T17:37:24.502Z,26.96
2022-08-24T17:42:40.272Z,26.96
2022-08-24T17:47:09.866Z,26.96
2022-08-24T17:52:02.571Z,26.95
2022-08-24T17:56:55.256Z,26.95
2022-08-24T18:01:47.873Z,26.94
2022-08-24T18:06:40.757Z,26.96
2022-08-24T18:11:32.946Z,26.96
2022-08-24T18:16:25.659Z,26.92
2022-08-24T18:21:18.504Z,26.92
2022-08-24T18:26:11.237Z,26.92
2022-08-24T18:31:03.916Z,26.92
2022-08-24T18:35:58.119Z,26.89
2022-08-24T18:40:52.523Z,26.89
2022-08-24T18:45:42.473Z,26.88
2022-08-24T18:50:37.802Z,26.88
2022-08-24T18:55:27.838Z,26.88
2022-08-24T19:00:20.476Z,26.88
2022-08-24T19:05:13.452Z,26.87
2022-08-24T19:10:06.113Z,26.86
2022-08-24T19:14:58.841Z,26.86
2022-08-24T19:19:51.586Z,26.85
2022-08-24T19:24:43.704Z,26.85
2022-08-24T19:29:54.959Z,26.85
2022-08-24T19:34:28.729Z,26.83
2022-08-24T19:39:21.330Z,26.83
2022-08-24T19:44:23.594Z,26.82
2022-08-24T19:49:06.850Z,26.81
2022-08-24T19:53:59.580Z,26.81
2022-08-24T19:58:52.281Z,26.8
2022-08-24T20:03:45.169Z,26.82
2022-08-24T20:08:37.891Z,26.81
2022-08-24T20:13:30.490Z,26.78
2022-08-24T20:18:23.504Z,26.75
2022-08-24T20:23:15.983Z,26.73
2022-08-24T20:33:01.450Z,26.68
2022-08-24T20:37:54.279Z,26.66
2022-08-24T20:42:47.029Z,26.65
2022-08-24T20:47:39.718Z,26.64
2022-08-24T20:52:32.122Z,26.61
2022-08-24T20:57:25.127Z,26.63
2022-08-24T21:02:17.912Z,26.6
2022-08-24T21:07:10.562Z,26.56
2022-08-24T21:12:03.329Z,26.57
2022-08-24T21:16:56.016Z,26.53
2022-08-24T21:21:48.890Z,26.52
2022-08-24T21:26:42.001Z,26.5
2022-08-24T21:31:34.702Z,26.51
2022-08-24T21:41:20.005Z,26.47
2022-08-24T21:46:12.291Z,26.47
2022-08-24T21:51:04.814Z,26.41
2022-08-24T21:55:57.639Z,26.42
2022-08-24T22:00:50.170Z,26.42
2022-08-24T22:05:42.997Z,26.4
2022-08-24T22:10:35.879Z,26.41
2022-08-24T22:15:28.387Z,26.39
2022-08-24T22:20:23.022Z,26.37
2022-08-24T22:25:13.857Z,26.35
2022-08-24T22:30:06.242Z,26.33
2022-08-24T22:34:58.871Z,26.32
2022-08-24T22:39:51.493Z,26.31
2022-08-24T22:44:43.979Z,26.32
2022-08-24T22:49:35.974Z,26.29
2022-08-24T22:54:28.614Z,26.24
2022-08-24T22:59:21.474Z,26.29
2022-08-24T23:04:14.202Z,26.23
2022-08-24T23:09:07.008Z,26.25
2022-08-24T23:13:59.603Z,26.19
2022-08-24T23:18:52.480Z,26.18
2022-08-24T23:23:45.259Z,26.19
2022-08-24T23:28:37.665Z,26.15
2022-08-24T23:33:30.136Z,26.15
2022-08-24T23:38:22.893Z,26.16
2022-08-24T23:43:15.124Z,26.14
2022-08-24T23:48:07.929Z,26.12
2022-08-24T23:53:00.612Z,26.14
2022-08-24T23:57:53.050Z,26.1
